Terminal Aerodrome Forecast
Issued by NWS

Home | Current Version | Previous Version | Text Only | Print | Product List | Glossary On
Versions: 1 2 3 4 5 6 7 8 9 10 11 12 13 14 15 16 17 18 19 20 21 22 23 24 25 26 27 28
000
FTUS45 KCYS 200526
TAFAIA
TAF
KAIA 200526Z 2006/2106 15022G32KT P6SM SCT250
     FM201200 14020G30KT P6SM BKN060
     FM201500 14015KT 4SM -RASN OVC025
     FM201800 12017G27KT 1SM -SN OVC012
     FM202000 12017G27KT 5SM -RASN OVC012=

USA.gov is the U.S. government's official web portal to all federal, state and local government web resources and services.